sensor_id;sensor_type;location;lat;lon;timestamp;temperature;humidity
66594;DHT22;53450;42.584;23.366;2023-04-19T00:01:25;7.21;85.29
66594;DHT22;53450;42.584;23.366;2023-04-19T00:03:54;7.32;85.19
66594;DHT22;53450;42.584;23.366;2023-04-19T00:06:20;7.18;85.20
66594;DHT22;53450;42.584;23.366;2023-04-19T00:08:45;7.17;85.37
66594;DHT22;53450;42.584;23.366;2023-04-19T00:11:11;7.14;85.72
66594;DHT22;53450;42.584;23.366;2023-04-19T00:13:37;7.18;85.74
66594;DHT22;53450;42.584;23.366;2023-04-19T00:16:04;7.27;85.51
66594;DHT22;53450;42.584;23.366;2023-04-19T00:18:30;7.30;85.47
66594;DHT22;53450;42.584;23.366;2023-04-19T00:20:55;7.35;85.48
66594;DHT22;53450;42.584;23.366;2023-04-19T00:23:21;7.41;85.27
66594;DHT22;53450;42.584;23.366;2023-04-19T00:25:48;7.49;84.86
66594;DHT22;53450;42.584;23.366;2023-04-19T00:28:14;7.48;84.70
66594;DHT22;53450;42.584;23.366;2023-04-19T00:30:41;7.58;84.51
66594;DHT22;53450;42.584;23.366;2023-04-19T00:33:09;7.49;84.15
66594;DHT22;53450;42.584;23.366;2023-04-19T00:35:40;7.52;84.45
66594;DHT22;53450;42.584;23.366;2023-04-19T00:38:08;7.56;84.38
66594;DHT22;53450;42.584;23.366;2023-04-19T00:40:36;7.52;84.59
66594;DHT22;53450;42.584;23.366;2023-04-19T00:43:03;7.63;84.33
66594;DHT22;53450;42.584;23.366;2023-04-19T00:45:54;7.63;84.02
66594;DHT22;53450;42.584;23.366;2023-04-19T00:48:19;7.61;84.05
66594;DHT22;53450;42.584;23.366;2023-04-19T00:50:45;7.66;84.04
66594;DHT22;53450;42.584;23.366;2023-04-19T00:53:11;7.66;84.09
66594;DHT22;53450;42.584;23.366;2023-04-19T00:56:02;7.72;83.95
66594;DHT22;53450;42.584;23.366;2023-04-19T00:58:55;7.72;83.83
66594;DHT22;53450;42.584;23.366;2023-04-19T01:01:21;7.75;83.56
66594;DHT22;53450;42.584;23.366;2023-04-19T01:03:48;7.76;83.32
66594;DHT22;53450;42.584;23.366;2023-04-19T01:06:14;7.75;83.52
66594;DHT22;53450;42.584;23.366;2023-04-19T01:08:40;7.82;83.23
66594;DHT22;53450;42.584;23.366;2023-04-19T01:11:06;7.73;83.15
66594;DHT22;53450;42.584;23.366;2023-04-19T01:13:35;7.73;82.82
66594;DHT22;53450;42.584;23.366;2023-04-19T01:16:01;7.65;82.87
66594;DHT22;53450;42.584;23.366;2023-04-19T01:18:26;7.73;83.23
66594;DHT22;53450;42.584;23.366;2023-04-19T01:20:58;7.70;83.01
66594;DHT22;53450;42.584;23.366;2023-04-19T01:23:23;7.66;83.30
66594;DHT22;53450;42.584;23.366;2023-04-19T01:25:49;7.69;83.51
66594;DHT22;53450;42.584;23.366;2023-04-19T01:28:15;7.72;83.67
66594;DHT22;53450;42.584;23.366;2023-04-19T01:30:40;7.78;83.67
66594;DHT22;53450;42.584;23.366;2023-04-19T01:33:06;7.70;83.51
66594;DHT22;53450;42.584;23.366;2023-04-19T01:35:32;7.68;83.40
66594;DHT22;53450;42.584;23.366;2023-04-19T01:37:57;7.56;83.81
66594;DHT22;53450;42.584;23.366;2023-04-19T01:40:24;7.49;84.30
66594;DHT22;53450;42.584;23.366;2023-04-19T01:42:50;7.31;84.89
66594;DHT22;53450;42.584;23.366;2023-04-19T01:45:15;7.15;85.67
66594;DHT22;53450;42.584;23.366;2023-04-19T01:47:41;7.28;85.70
66594;DHT22;53450;42.584;23.366;2023-04-19T01:50:07;7.36;85.45
66594;DHT22;53450;42.584;23.366;2023-04-19T01:52:34;7.36;85.42
66594;DHT22;53450;42.584;23.366;2023-04-19T01:54:59;7.38;85.37
66594;DHT22;53450;42.584;23.366;2023-04-19T01:57:25;7.34;85.27
66594;DHT22;53450;42.584;23.366;2023-04-19T01:59:52;7.31;85.36
66594;DHT22;53450;42.584;23.366;2023-04-19T02:02:18;7.36;85.33
66594;DHT22;53450;42.584;23.366;2023-04-19T02:04:43;7.35;85.45
66594;DHT22;53450;42.584;23.366;2023-04-19T02:07:09;7.25;85.40
66594;DHT22;53450;42.584;23.366;2023-04-19T02:09:35;7.22;85.62
66594;DHT22;53450;42.584;23.366;2023-04-19T02:12:02;7.22;85.48
66594;DHT22;53450;42.584;23.366;2023-04-19T02:14:28;7.20;85.34
66594;DHT22;53450;42.584;23.366;2023-04-19T02:16:53;7.24;85.07
66594;DHT22;53450;42.584;23.366;2023-04-19T02:19:19;7.25;84.81
66594;DHT22;53450;42.584;23.366;2023-04-19T02:21:45;7.28;84.95
66594;DHT22;53450;42.584;23.366;2023-04-19T02:24:13;7.24;84.68
66594;DHT22;53450;42.584;23.366;2023-04-19T02:26:38;7.28;84.60
66594;DHT22;53450;42.584;23.366;2023-04-19T02:29:05;7.31;84.66
66594;DHT22;53450;42.584;23.366;2023-04-19T02:31:30;7.25;84.46
66594;DHT22;53450;42.584;23.366;2023-04-19T02:33:56;7.25;84.52
66594;DHT22;53450;42.584;23.366;2023-04-19T02:36:22;7.30;84.64
66594;DHT22;53450;42.584;23.366;2023-04-19T02:38:47;7.24;84.38
66594;DHT22;53450;42.584;23.366;2023-04-19T02:41:13;7.27;84.54
66594;DHT22;53450;42.584;23.366;2023-04-19T02:43:38;7.32;84.48
66594;DHT22;53450;42.584;23.366;2023-04-19T02:46:04;7.35;84.25
66594;DHT22;53450;42.584;23.366;2023-04-19T02:48:30;7.38;84.15
66594;DHT22;53450;42.584;23.366;2023-04-19T02:50:55;7.38;84.09
66594;DHT22;53450;42.584;23.366;2023-04-19T02:53:22;7.24;84.51
66594;DHT22;53450;42.584;23.366;2023-04-19T02:55:48;7.31;84.53
66594;DHT22;53450;42.584;23.366;2023-04-19T02:58:17;7.20;84.45
66594;DHT22;53450;42.584;23.366;2023-04-19T03:01:04;7.18;84.86
66594;DHT22;53450;42.584;23.366;2023-04-19T03:03:29;7.25;84.64
66594;DHT22;53450;42.584;23.366;2023-04-19T03:05:55;7.15;84.68
66594;DHT22;53450;42.584;23.366;2023-04-19T03:08:21;7.17;84.91
66594;DHT22;53450;42.584;23.366;2023-04-19T03:10:46;7.14;85.33
66594;DHT22;53450;42.584;23.366;2023-04-19T03:13:12;7.04;85.93
66594;DHT22;53450;42.584;23.366;2023-04-19T03:15:38;7.05;86.21
66594;DHT22;53450;42.584;23.366;2023-04-19T03:18:04;7.15;86.16
66594;DHT22;53450;42.584;23.366;2023-04-19T03:20:31;7.01;86.08
66594;DHT22;53450;42.584;23.366;2023-04-19T03:22:56;7.10;86.16
66594;DHT22;53450;42.584;23.366;2023-04-19T03:25:23;6.99;86.22
66594;DHT22;53450;42.584;23.366;2023-04-19T03:27:57;6.94;86.56
66594;DHT22;53450;42.584;23.366;2023-04-19T03:30:42;6.87;86.81
66594;DHT22;53450;42.584;23.366;2023-04-19T03:33:08;6.89;86.90
66594;DHT22;53450;42.584;23.366;2023-04-19T03:35:33;6.86;86.83
66594;DHT22;53450;42.584;23.366;2023-04-19T03:38:06;6.84;86.82
66594;DHT22;53450;42.584;23.366;2023-04-19T03:40:32;6.84;86.69
66594;DHT22;53450;42.584;23.366;2023-04-19T03:42:58;6.77;86.74
66594;DHT22;53450;42.584;23.366;2023-04-19T03:45:29;6.77;86.91
66594;DHT22;53450;42.584;23.366;2023-04-19T03:47:54;6.73;86.97
66594;DHT22;53450;42.584;23.366;2023-04-19T03:50:21;6.84;87.12
66594;DHT22;53450;42.584;23.366;2023-04-19T03:52:50;6.84;86.82
66594;DHT22;53450;42.584;23.366;2023-04-19T03:55:15;6.91;86.73
66594;DHT22;53450;42.584;23.366;2023-04-19T03:57:41;7.05;86.23
66594;DHT22;53450;42.584;23.366;2023-04-19T04:00:15;7.12;84.73
66594;DHT22;53450;42.584;23.366;2023-04-19T04:02:41;7.07;84.93
66594;DHT22;53450;42.584;23.366;2023-04-19T04:05:07;6.97;85.31
66594;DHT22;53450;42.584;23.366;2023-04-19T04:07:35;6.99;85.46
66594;DHT22;53450;42.584;23.366;2023-04-19T04:10:01;6.89;85.46
66594;DHT22;53450;42.584;23.366;2023-04-19T04:12:29;6.81;85.67
66594;DHT22;53450;42.584;23.366;2023-04-19T04:14:56;6.79;85.87
66594;DHT22;53450;42.584;23.366;2023-04-19T04:17:22;6.63;86.45
66594;DHT22;53450;42.584;23.366;2023-04-19T04:19:49;6.66;86.48
66594;DHT22;53450;42.584;23.366;2023-04-19T04:22:15;6.73;86.52
66594;DHT22;53450;42.584;23.366;2023-04-19T04:25:06;6.77;86.34
66594;DHT22;53450;42.584;23.366;2023-04-19T04:27:37;6.81;86.40
66594;DHT22;53450;42.584;23.366;2023-04-19T04:30:07;6.86;86.44
66594;DHT22;53450;42.584;23.366;2023-04-19T04:32:34;6.91;86.43
66594;DHT22;53450;42.584;23.366;2023-04-19T04:35:02;7.04;86.27
66594;DHT22;53450;42.584;23.366;2023-04-19T04:37:37;7.10;86.03
66594;DHT22;53450;42.584;23.366;2023-04-19T04:40:04;6.90;86.16
66594;DHT22;53450;42.584;23.366;2023-04-19T04:42:31;6.87;86.45
66594;DHT22;53450;42.584;23.366;2023-04-19T04:44:57;7.07;86.32
66594;DHT22;53450;42.584;23.366;2023-04-19T04:47:33;7.04;85.68
66594;DHT22;53450;42.584;23.366;2023-04-19T04:50:02;7.22;85.35
66594;DHT22;53450;42.584;23.366;2023-04-19T04:52:28;7.17;85.33
66594;DHT22;53450;42.584;23.366;2023-04-19T04:55:08;7.17;85.21
66594;DHT22;53450;42.584;23.366;2023-04-19T04:57:38;7.11;85.18
66594;DHT22;53450;42.584;23.366;2023-04-19T05:00:06;7.08;85.36
66594;DHT22;53450;42.584;23.366;2023-04-19T05:02:58;7.10;85.45
66594;DHT22;53450;42.584;23.366;2023-04-19T05:05:24;7.15;85.33
66594;DHT22;53450;42.584;23.366;2023-04-19T05:07:50;7.10;85.30
66594;DHT22;53450;42.584;23.366;2023-04-19T05:10:15;7.21;85.11
66594;DHT22;53450;42.584;23.366;2023-04-19T05:12:43;7.25;85.12
66594;DHT22;53450;42.584;23.366;2023-04-19T05:15:09;7.34;84.94
66594;DHT22;53450;42.584;23.366;2023-04-19T05:17:38;7.39;84.51
66594;DHT22;53450;42.584;23.366;2023-04-19T05:20:04;7.32;84.64
66594;DHT22;53450;42.584;23.366;2023-04-19T05:22:31;7.36;84.83
66594;DHT22;53450;42.584;23.366;2023-04-19T05:24:57;7.48;84.70
66594;DHT22;53450;42.584;23.366;2023-04-19T05:27:22;7.49;84.39
66594;DHT22;53450;42.584;23.366;2023-04-19T05:29:48;7.47;84.25
66594;DHT22;53450;42.584;23.366;2023-04-19T05:32:16;7.52;84.29
66594;DHT22;53450;42.584;23.366;2023-04-19T05:34:47;7.58;84.42
66594;DHT22;53450;42.584;23.366;2023-04-19T05:37:14;7.56;84.10
66594;DHT22;53450;42.584;23.366;2023-04-19T05:39:40;7.49;84.17
66594;DHT22;53450;42.584;23.366;2023-04-19T05:42:06;7.49;84.40
66594;DHT22;53450;42.584;23.366;2023-04-19T05:44:31;7.61;83.69
66594;DHT22;53450;42.584;23.366;2023-04-19T05:47:22;7.65;83.60
66594;DHT22;53450;42.584;23.366;2023-04-19T05:50:07;7.61;83.61
66594;DHT22;53450;42.584;23.366;2023-04-19T05:52:36;7.47;83.74
66594;DHT22;53450;42.584;23.366;2023-04-19T05:55:03;7.48;84.11
66594;DHT22;53450;42.584;23.366;2023-04-19T05:57:31;7.58;84.24
66594;DHT22;53450;42.584;23.366;2023-04-19T05:59:57;7.61;84.20
66594;DHT22;53450;42.584;23.366;2023-04-19T06:02:27;7.58;83.97
66594;DHT22;53450;42.584;23.366;2023-04-19T06:05:13;7.55;83.94
66594;DHT22;53450;42.584;23.366;2023-04-19T06:07:39;7.70;83.98
66594;DHT22;53450;42.584;23.366;2023-04-19T06:10:07;8.01;83.56
66594;DHT22;53450;42.584;23.366;2023-04-19T06:12:39;8.14;82.67
66594;DHT22;53450;42.584;23.366;2023-04-19T06:15:05;8.34;82.23
66594;DHT22;53450;42.584;23.366;2023-04-19T06:17:31;8.19;81.89
66594;DHT22;53450;42.584;23.366;2023-04-19T06:19:56;8.31;82.12
66594;DHT22;53450;42.584;23.366;2023-04-19T06:22:22;8.27;82.40
66594;DHT22;53450;42.584;23.366;2023-04-19T06:24:48;8.40;82.10
66594;DHT22;53450;42.584;23.366;2023-04-19T06:27:15;8.21;81.58
66594;DHT22;53450;42.584;23.366;2023-04-19T06:29:41;8.37;81.65
66594;DHT22;53450;42.584;23.366;2023-04-19T06:32:07;8.44;81.80
66594;DHT22;53450;42.584;23.366;2023-04-19T06:34:33;8.41;81.19
66594;DHT22;53450;42.584;23.366;2023-04-19T06:36:58;8.47;81.60
66594;DHT22;53450;42.584;23.366;2023-04-19T06:39:24;8.28;81.45
66594;DHT22;53450;42.584;23.366;2023-04-19T06:41:50;8.23;82.24
66594;DHT22;53450;42.584;23.366;2023-04-19T06:44:16;8.42;81.89
66594;DHT22;53450;42.584;23.366;2023-04-19T06:46:41;8.65;81.48
66594;DHT22;53450;42.584;23.366;2023-04-19T06:49:07;8.64;81.04
66594;DHT22;53450;42.584;23.366;2023-04-19T06:51:32;8.59;80.42
66594;DHT22;53450;42.584;23.366;2023-04-19T06:53:58;8.73;80.70
66594;DHT22;53450;42.584;23.366;2023-04-19T06:56:43;8.82;79.83
66594;DHT22;53450;42.584;23.366;2023-04-19T06:59:17;8.95;79.26
66594;DHT22;53450;42.584;23.366;2023-04-19T07:01:44;8.96;79.22
66594;DHT22;53450;42.584;23.366;2023-04-19T07:04:10;9.07;79.18
66594;DHT22;53450;42.584;23.366;2023-04-19T07:06:36;9.20;78.94
66594;DHT22;53450;42.584;23.366;2023-04-19T07:09:03;9.28;79.16
66594;DHT22;53450;42.584;23.366;2023-04-19T07:11:29;9.26;78.90
66594;DHT22;53450;42.584;23.366;2023-04-19T07:13:55;9.31;78.26
66594;DHT22;53450;42.584;23.366;2023-04-19T07:16:46;9.31;78.14
66594;DHT22;53450;42.584;23.366;2023-04-19T07:19:12;9.41;77.56
66594;DHT22;53450;42.584;23.366;2023-04-19T07:21:40;9.57;77.36
66594;DHT22;53450;42.584;23.366;2023-04-19T07:24:06;9.75;77.29
66594;DHT22;53450;42.584;23.366;2023-04-19T07:26:32;9.75;76.19
66594;DHT22;53450;42.584;23.366;2023-04-19T07:28:58;9.71;76.84
66594;DHT22;53450;42.584;23.366;2023-04-19T07:31:24;9.57;76.47
66594;DHT22;53450;42.584;23.366;2023-04-19T07:33:50;9.77;77.30
66594;DHT22;53450;42.584;23.366;2023-04-19T07:36:16;9.77;76.89
66594;DHT22;53450;42.584;23.366;2023-04-19T07:38:42;9.84;76.82
66594;DHT22;53450;42.584;23.366;2023-04-19T07:41:08;9.85;76.33
66594;DHT22;53450;42.584;23.366;2023-04-19T07:43:33;9.64;76.21
66594;DHT22;53450;42.584;23.366;2023-04-19T07:46:12;9.74;75.81
66594;DHT22;53450;42.584;23.366;2023-04-19T07:48:50;9.95;75.70
66594;DHT22;53450;42.584;23.366;2023-04-19T07:51:41;10.09;74.42
66594;DHT22;53450;42.584;23.366;2023-04-19T07:54:10;10.02;74.38
66594;DHT22;53450;42.584;23.366;2023-04-19T07:56:36;10.09;73.59
66594;DHT22;53450;42.584;23.366;2023-04-19T07:59:04;10.50;73.50
66594;DHT22;53450;42.584;23.366;2023-04-19T08:01:30;10.74;71.90
66594;DHT22;53450;42.584;23.366;2023-04-19T08:03:56;10.85;71.47
66594;DHT22;53450;42.584;23.366;2023-04-19T08:06:21;10.52;72.18
66594;DHT22;53450;42.584;23.366;2023-04-19T08:08:47;10.39;72.53
66594;DHT22;53450;42.584;23.366;2023-04-19T08:11:16;10.37;72.09
66594;DHT22;53450;42.584;23.366;2023-04-19T08:13:41;10.54;71.13
66594;DHT22;53450;42.584;23.366;2023-04-19T08:16:07;10.53;71.66
66594;DHT22;53450;42.584;23.366;2023-04-19T08:18:33;10.75;71.51
66594;DHT22;53450;42.584;23.366;2023-04-19T08:20:58;10.49;70.90
66594;DHT22;53450;42.584;23.366;2023-04-19T08:23:24;10.50;72.70
66594;DHT22;53450;42.584;23.366;2023-04-19T08:25:50;10.59;71.75
66594;DHT22;53450;42.584;23.366;2023-04-19T08:28:16;10.52;71.23
66594;DHT22;53450;42.584;23.366;2023-04-19T08:30:42;10.71;72.22
66594;DHT22;53450;42.584;23.366;2023-04-19T08:33:08;10.78;72.35
66594;DHT22;53450;42.584;23.366;2023-04-19T08:35:37;10.93;70.63
66594;DHT22;53450;42.584;23.366;2023-04-19T08:38:03;11.03;69.79
66594;DHT22;53450;42.584;23.366;2023-04-19T08:40:29;11.07;70.47
66594;DHT22;53450;42.584;23.366;2023-04-19T08:43:24;11.01;71.06
66594;DHT22;53450;42.584;23.366;2023-04-19T08:45:50;11.12;71.67
66594;DHT22;53450;42.584;23.366;2023-04-19T08:48:18;11.31;70.75
66594;DHT22;53450;42.584;23.366;2023-04-19T08:50:43;11.03;70.27
66594;DHT22;53450;42.584;23.366;2023-04-19T08:53:14;11.03;70.15
66594;DHT22;53450;42.584;23.366;2023-04-19T08:55:41;11.10;70.58
66594;DHT22;53450;42.584;23.366;2023-04-19T08:58:07;11.26;70.56
66594;DHT22;53450;42.584;23.366;2023-04-19T09:00:36;11.03;70.41
66594;DHT22;53450;42.584;23.366;2023-04-19T09:03:02;10.84;72.33
66594;DHT22;53450;42.584;23.366;2023-04-19T09:05:27;10.75;72.40
66594;DHT22;53450;42.584;23.366;2023-04-19T09:08:31;10.57;71.84
66594;DHT22;53450;42.584;23.366;2023-04-19T09:11:00;10.53;72.19
66594;DHT22;53450;42.584;23.366;2023-04-19T09:13:27;10.66;70.70
66594;DHT22;53450;42.584;23.366;2023-04-19T09:15:54;10.97;70.55
66594;DHT22;53450;42.584;23.366;2023-04-19T09:18:22;11.14;70.96
66594;DHT22;53450;42.584;23.366;2023-04-19T09:20:49;11.15;70.36
66594;DHT22;53450;42.584;23.366;2023-04-19T09:23:17;11.28;69.51
66594;DHT22;53450;42.584;23.366;2023-04-19T09:25:59;11.21;69.22
66594;DHT22;53450;42.584;23.366;2023-04-19T09:28:26;11.29;69.58
66594;DHT22;53450;42.584;23.366;2023-04-19T09:30:53;11.29;68.66
66594;DHT22;53450;42.584;23.366;2023-04-19T09:33:36;11.35;69.15
66594;DHT22;53450;42.584;23.366;2023-04-19T09:36:05;11.36;69.34
66594;DHT22;53450;42.584;23.366;2023-04-19T09:38:47;11.51;68.41
66594;DHT22;53450;42.584;23.366;2023-04-19T09:41:13;11.49;69.40
66594;DHT22;53450;42.584;23.366;2023-04-19T09:43:39;11.19;69.74
66594;DHT22;53450;42.584;23.366;2023-04-19T09:46:04;11.33;69.86
66594;DHT22;53450;42.584;23.366;2023-04-19T09:48:30;11.56;70.46
66594;DHT22;53450;42.584;23.366;2023-04-19T09:50:57;11.49;69.76
66594;DHT22;53450;42.584;23.366;2023-04-19T09:53:24;11.53;69.58
66594;DHT22;53450;42.584;23.366;2023-04-19T09:55:50;11.56;69.84
66594;DHT22;53450;42.584;23.366;2023-04-19T09:58:17;11.53;69.24
66594;DHT22;53450;42.584;23.366;2023-04-19T10:00:43;11.74;69.03
66594;DHT22;53450;42.584;23.366;2023-04-19T10:03:09;11.66;68.21
66594;DHT22;53450;42.584;23.366;2023-04-19T10:05:39;11.26;69.29
66594;DHT22;53450;42.584;23.366;2023-04-19T10:08:09;11.25;70.17
66594;DHT22;53450;42.584;23.366;2023-04-19T10:10:36;11.15;70.45
66594;DHT22;53450;42.584;23.366;2023-04-19T10:13:04;11.05;70.50
66594;DHT22;53450;42.584;23.366;2023-04-19T10:15:59;11.04;70.62
66594;DHT22;53450;42.584;23.366;2023-04-19T10:18:24;10.81;71.12
66594;DHT22;53450;42.584;23.366;2023-04-19T10:20:57;10.83;71.12
66594;DHT22;53450;42.584;23.366;2023-04-19T10:23:27;10.75;71.09
66594;DHT22;53450;42.584;23.366;2023-04-19T10:25:56;10.81;70.58
66594;DHT22;53450;42.584;23.366;2023-04-19T10:28:22;10.85;70.21
66594;DHT22;53450;42.584;23.366;2023-04-19T10:30:57;10.93;69.72
66594;DHT22;53450;42.584;23.366;2023-04-19T10:33:26;11.01;70.61
66594;DHT22;53450;42.584;23.366;2023-04-19T10:35:55;11.00;70.06
66594;DHT22;53450;42.584;23.366;2023-04-19T10:38:43;10.85;69.49
66594;DHT22;53450;42.584;23.366;2023-04-19T10:41:11;10.87;70.71
66594;DHT22;53450;42.584;23.366;2023-04-19T10:43:40;11.01;70.17
66594;DHT22;53450;42.584;23.366;2023-04-19T10:46:35;10.90;69.22
66594;DHT22;53450;42.584;23.366;2023-04-19T10:49:03;10.93;69.21
66594;DHT22;53450;42.584;23.366;2023-04-19T10:51:36;11.15;68.84
66594;DHT22;53450;42.584;23.366;2023-04-19T10:54:06;11.40;68.10
66594;DHT22;53450;42.584;23.366;2023-04-19T11:07:04;11.84;67.10
66594;DHT22;53450;42.584;23.366;2023-04-19T11:12:06;11.66;66.03
66594;DHT22;53450;42.584;23.366;2023-04-19T11:14:39;11.53;65.68
66594;DHT22;53450;42.584;23.366;2023-04-19T11:20:04;11.49;66.25
66594;DHT22;53450;42.584;23.366;2023-04-19T11:22:43;11.72;65.62
66594;DHT22;53450;42.584;23.366;2023-04-19T11:25:12;11.76;64.63
66594;DHT22;53450;42.584;23.366;2023-04-19T11:27:49;11.77;64.89
66594;DHT22;53450;42.584;23.366;2023-04-19T11:30:21;11.77;65.45
66594;DHT22;53450;42.584;23.366;2023-04-19T11:35:14;11.80;63.69
66594;DHT22;53450;42.584;23.366;2023-04-19T11:37:48;11.66;63.52
66594;DHT22;53450;42.584;23.366;2023-04-19T11:40:18;11.59;62.77
66594;DHT22;53450;42.584;23.366;2023-04-19T11:42:52;11.80;62.01
66594;DHT22;53450;42.584;23.366;2023-04-19T11:47:50;12.63;59.30
66594;DHT22;53450;42.584;23.366;2023-04-19T11:50:38;12.95;60.81
66594;DHT22;53450;42.584;23.366;2023-04-19T11:53:15;12.90;58.01
66594;DHT22;53450;42.584;23.366;2023-04-19T11:56:05;13.20;58.43
66594;DHT22;53450;42.584;23.366;2023-04-19T11:58:42;13.33;58.33
66594;DHT22;53450;42.584;23.366;2023-04-19T12:01:16;13.28;58.47
66594;DHT22;53450;42.584;23.366;2023-04-19T12:03:49;13.19;58.22
66594;DHT22;53450;42.584;23.366;2023-04-19T12:06:29;12.99;58.65
66594;DHT22;53450;42.584;23.366;2023-04-19T12:08:57;12.62;56.64
66594;DHT22;53450;42.584;23.366;2023-04-19T12:11:25;12.75;59.53
66594;DHT22;53450;42.584;23.366;2023-04-19T12:14:08;13.03;59.19
66594;DHT22;53450;42.584;23.366;2023-04-19T12:16:33;12.93;57.33
66594;DHT22;53450;42.584;23.366;2023-04-19T12:19:09;13.17;55.27
66594;DHT22;53450;42.584;23.366;2023-04-19T12:21:38;13.24;54.65
66594;DHT22;53450;42.584;23.366;2023-04-19T12:24:03;13.30;54.03
66594;DHT22;53450;42.584;23.366;2023-04-19T12:26:29;13.51;53.74
66594;DHT22;53450;42.584;23.366;2023-04-19T12:28:56;13.58;53.85
66594;DHT22;53450;42.584;23.366;2023-04-19T12:31:21;13.78;54.41
66594;DHT22;53450;42.584;23.366;2023-04-19T12:33:47;14.01;54.64
66594;DHT22;53450;42.584;23.366;2023-04-19T12:36:13;13.64;52.30
66594;DHT22;53450;42.584;23.366;2023-04-19T12:38:39;13.57;54.29
66594;DHT22;53450;42.584;23.366;2023-04-19T12:41:05;13.61;54.78
66594;DHT22;53450;42.584;23.366;2023-04-19T12:43:31;13.20;55.18
66594;DHT22;53450;42.584;23.366;2023-04-19T12:45:57;13.20;56.68
66594;DHT22;53450;42.584;23.366;2023-04-19T12:48:23;13.11;56.48
66594;DHT22;53450;42.584;23.366;2023-04-19T12:50:49;13.24;56.45
66594;DHT22;53450;42.584;23.366;2023-04-19T12:53:15;13.30;57.20
66594;DHT22;53450;42.584;23.366;2023-04-19T12:55:41;13.17;56.12
66594;DHT22;53450;42.584;23.366;2023-04-19T12:58:12;13.00;56.61
66594;DHT22;53450;42.584;23.366;2023-04-19T13:00:38;13.30;57.84
66594;DHT22;53450;42.584;23.366;2023-04-19T13:03:03;13.51;56.82
66594;DHT22;53450;42.584;23.366;2023-04-19T13:05:29;13.17;57.32
66594;DHT22;53450;42.584;23.366;2023-04-19T13:07:54;13.06;57.99
66594;DHT22;53450;42.584;23.366;2023-04-19T13:10:20;13.06;57.58
66594;DHT22;53450;42.584;23.366;2023-04-19T13:12:46;12.89;57.91
66594;DHT22;53450;42.584;23.366;2023-04-19T13:15:11;12.69;58.92
66594;DHT22;53450;42.584;23.366;2023-04-19T13:17:37;12.65;59.25
66594;DHT22;53450;42.584;23.366;2023-04-19T13:20:03;12.73;58.90
66594;DHT22;53450;42.584;23.366;2023-04-19T13:22:31;12.88;58.95
66594;DHT22;53450;42.584;23.366;2023-04-19T13:24:57;13.00;59.33
66594;DHT22;53450;42.584;23.366;2023-04-19T13:27:23;12.92;59.59
66594;DHT22;53450;42.584;23.366;2023-04-19T13:29:48;12.49;64.78
66594;DHT22;53450;42.584;23.366;2023-04-19T13:32:14;11.95;68.00
66594;DHT22;53450;42.584;23.366;2023-04-19T13:34:40;11.43;68.35
66594;DHT22;53450;42.584;23.366;2023-04-19T13:37:06;11.00;71.75
66594;DHT22;53450;42.584;23.366;2023-04-19T13:39:32;10.80;72.86
66594;DHT22;53450;42.584;23.366;2023-04-19T13:41:58;10.59;73.05
66594;DHT22;53450;42.584;23.366;2023-04-19T13:44:23;10.63;72.36
66594;DHT22;53450;42.584;23.366;2023-04-19T13:46:49;10.64;70.20
66594;DHT22;53450;42.584;23.366;2023-04-19T13:49:17;10.70;69.71
66594;DHT22;53450;42.584;23.366;2023-04-19T13:51:42;10.75;69.61
66594;DHT22;53450;42.584;23.366;2023-04-19T13:54:08;10.91;69.84
66594;DHT22;53450;42.584;23.366;2023-04-19T13:56:34;10.83;70.09
66594;DHT22;53450;42.584;23.366;2023-04-19T13:58:59;10.63;71.19
66594;DHT22;53450;42.584;23.366;2023-04-19T14:01:25;10.81;72.70
66594;DHT22;53450;42.584;23.366;2023-04-19T14:03:50;10.64;71.31
66594;DHT22;53450;42.584;23.366;2023-04-19T14:06:41;10.56;71.71
66594;DHT22;53450;42.584;23.366;2023-04-19T14:09:07;10.59;71.18
66594;DHT22;53450;42.584;23.366;2023-04-19T14:11:33;10.56;72.78
66594;DHT22;53450;42.584;23.366;2023-04-19T14:13:59;10.54;72.39
66594;DHT22;53450;42.584;23.366;2023-04-19T14:16:24;10.64;71.97
66594;DHT22;53450;42.584;23.366;2023-04-19T14:18:50;10.83;70.93
66594;DHT22;53450;42.584;23.366;2023-04-19T14:21:16;10.84;72.56
66594;DHT22;53450;42.584;23.366;2023-04-19T14:23:42;10.93;71.41
66594;DHT22;53450;42.584;23.366;2023-04-19T14:26:08;10.93;71.78
66594;DHT22;53450;42.584;23.366;2023-04-19T14:28:33;10.87;71.49
66594;DHT22;53450;42.584;23.366;2023-04-19T14:30:59;10.91;71.43
66594;DHT22;53450;42.584;23.366;2023-04-19T14:33:24;10.97;71.53
66594;DHT22;53450;42.584;23.366;2023-04-19T14:35:51;11.08;70.27
66594;DHT22;53450;42.584;23.366;2023-04-19T14:38:16;11.00;69.88
66594;DHT22;53450;42.584;23.366;2023-04-19T14:40:42;11.05;70.26
66594;DHT22;53450;42.584;23.366;2023-04-19T14:43:07;11.15;69.88
66594;DHT22;53450;42.584;23.366;2023-04-19T14:45:33;11.15;69.68
66594;DHT22;53450;42.584;23.366;2023-04-19T14:47:58;11.28;69.27
66594;DHT22;53450;42.584;23.366;2023-04-19T14:50:24;11.45;69.21
66594;DHT22;53450;42.584;23.366;2023-04-19T14:52:49;11.69;68.61
66594;DHT22;53450;42.584;23.366;2023-04-19T14:55:15;11.98;67.81
66594;DHT22;53450;42.584;23.366;2023-04-19T14:57:41;12.17;67.05
66594;DHT22;53450;42.584;23.366;2023-04-19T15:00:07;11.98;67.40
66594;DHT22;53450;42.584;23.366;2023-04-19T15:02:33;11.87;67.43
66594;DHT22;53450;42.584;23.366;2023-04-19T15:04:58;12.05;67.85
66594;DHT22;53450;42.584;23.366;2023-04-19T15:07:24;12.01;67.75
66594;DHT22;53450;42.584;23.366;2023-04-19T15:10:15;11.98;67.49
66594;DHT22;53450;42.584;23.366;2023-04-19T15:13:06;11.90;67.08
66594;DHT22;53450;42.584;23.366;2023-04-19T15:15:32;11.80;67.34
66594;DHT22;53450;42.584;23.366;2023-04-19T15:18:00;11.72;67.66
66594;DHT22;53450;42.584;23.366;2023-04-19T15:20:26;11.66;68.28
66594;DHT22;53450;42.584;23.366;2023-04-19T15:22:52;11.77;67.41
66594;DHT22;53450;42.584;23.366;2023-04-19T15:25:18;11.61;68.50
66594;DHT22;53450;42.584;23.366;2023-04-19T15:27:43;11.26;69.53
66594;DHT22;53450;42.584;23.366;2023-04-19T15:30:09;11.08;70.41
66594;DHT22;53450;42.584;23.366;2023-04-19T15:32:35;11.11;71.01
66594;DHT22;53450;42.584;23.366;2023-04-19T15:35:03;10.97;71.71
66594;DHT22;53450;42.584;23.366;2023-04-19T15:37:28;11.14;71.22
66594;DHT22;53450;42.584;23.366;2023-04-19T15:39:54;11.55;70.14
66594;DHT22;53450;42.584;23.366;2023-04-19T15:42:20;11.74;69.53
66594;DHT22;53450;42.584;23.366;2023-04-19T15:44:46;11.70;69.09
66594;DHT22;53450;42.584;23.366;2023-04-19T15:47:11;11.70;69.12
66594;DHT22;53450;42.584;23.366;2023-04-19T15:49:37;11.73;69.64
66594;DHT22;53450;42.584;23.366;2023-04-19T15:52:05;11.55;68.35